sensor_id;sensor_type;location;lat;lon;timestamp;P1;durP1;ratioP1;P2;durP2;ratioP2
5147;SDS011;2592;48.140;7.614;2022-12-20T00:02:18;34.10;;;23.10;;
5147;SDS011;2592;48.140;7.614;2022-12-20T00:04:45;40.27;;;28.37;;
5147;SDS011;2592;48.140;7.614;2022-12-20T00:07:12;44.83;;;30.27;;
5147;SDS011;2592;48.140;7.614;2022-12-20T00:09:39;49.00;;;34.00;;
5147;SDS011;2592;48.140;7.614;2022-12-20T00:12:05;45.43;;;30.90;;
5147;SDS011;2592;48.140;7.614;2022-12-20T00:14:31;45.20;;;28.00;;
5147;SDS011;2592;48.140;7.614;2022-12-20T00:16:58;52.03;;;33.83;;
5147;SDS011;2592;48.140;7.614;2022-12-20T00:19:24;49.00;;;34.40;;
5147;SDS011;2592;48.140;7.614;2022-12-20T00:21:51;61.30;;;34.03;;
5147;SDS011;2592;48.140;7.614;2022-12-20T00:24:19;57.43;;;37.10;;
5147;SDS011;2592;48.140;7.614;2022-12-20T00:26:45;53.67;;;36.87;;
5147;SDS011;2592;48.140;7.614;2022-12-20T00:29:11;55.90;;;37.83;;
5147;SDS011;2592;48.140;7.614;2022-12-20T00:31:38;64.57;;;40.53;;
5147;SDS011;2592;48.140;7.614;2022-12-20T00:34:04;57.50;;;34.83;;
5147;SDS011;2592;48.140;7.614;2022-12-20T00:36:31;59.63;;;39.43;;
5147;SDS011;2592;48.140;7.614;2022-12-20T00:38:58;61.60;;;40.13;;
5147;SDS011;2592;48.140;7.614;2022-12-20T00:41:27;63.63;;;40.37;;
5147;SDS011;2592;48.140;7.614;2022-12-20T00:43:54;67.60;;;41.07;;
5147;SDS011;2592;48.140;7.614;2022-12-20T00:46:20;55.63;;;35.77;;
5147;SDS011;2592;48.140;7.614;2022-12-20T00:48:48;61.87;;;38.10;;
5147;SDS011;2592;48.140;7.614;2022-12-20T00:51:15;55.80;;;36.57;;
5147;SDS011;2592;48.140;7.614;2022-12-20T00:53:42;46.20;;;30.40;;
5147;SDS011;2592;48.140;7.614;2022-12-20T00:56:09;37.60;;;24.93;;
5147;SDS011;2592;48.140;7.614;2022-12-20T00:58:37;28.90;;;21.37;;
5147;SDS011;2592;48.140;7.614;2022-12-20T01:01:04;26.07;;;18.17;;
5147;SDS011;2592;48.140;7.614;2022-12-20T01:03:31;26.03;;;17.70;;
5147;SDS011;2592;48.140;7.614;2022-12-20T01:05:57;23.87;;;17.07;;
5147;SDS011;2592;48.140;7.614;2022-12-20T01:08:24;25.23;;;17.70;;
5147;SDS011;2592;48.140;7.614;2022-12-20T01:10:57;22.40;;;17.00;;
5147;SDS011;2592;48.140;7.614;2022-12-20T01:13:23;18.40;;;15.00;;
5147;SDS011;2592;48.140;7.614;2022-12-20T01:15:51;19.27;;;15.07;;
5147;SDS011;2592;48.140;7.614;2022-12-20T01:18:17;21.17;;;15.43;;
5147;SDS011;2592;48.140;7.614;2022-12-20T01:20:44;23.10;;;15.67;;
5147;SDS011;2592;48.140;7.614;2022-12-20T01:23:10;17.43;;;13.17;;
5147;SDS011;2592;48.140;7.614;2022-12-20T01:25:37;20.30;;;14.00;;
5147;SDS011;2592;48.140;7.614;2022-12-20T01:28:03;18.57;;;13.20;;
5147;SDS011;2592;48.140;7.614;2022-12-20T01:30:29;19.00;;;14.20;;
5147;SDS011;2592;48.140;7.614;2022-12-20T01:32:57;17.93;;;13.83;;
5147;SDS011;2592;48.140;7.614;2022-12-20T01:35:24;15.73;;;12.60;;
5147;SDS011;2592;48.140;7.614;2022-12-20T01:37:50;17.80;;;12.13;;
5147;SDS011;2592;48.140;7.614;2022-12-20T01:40:16;24.00;;;13.67;;
5147;SDS011;2592;48.140;7.614;2022-12-20T01:42:43;17.20;;;12.67;;
5147;SDS011;2592;48.140;7.614;2022-12-20T01:45:12;22.00;;;12.93;;
5147;SDS011;2592;48.140;7.614;2022-12-20T01:47:40;16.97;;;12.73;;
5147;SDS011;2592;48.140;7.614;2022-12-20T01:50:08;20.33;;;12.27;;
5147;SDS011;2592;48.140;7.614;2022-12-20T01:52:35;19.20;;;13.13;;
5147;SDS011;2592;48.140;7.614;2022-12-20T01:55:04;19.33;;;13.43;;
5147;SDS011;2592;48.140;7.614;2022-12-20T01:57:32;19.20;;;14.30;;
5147;SDS011;2592;48.140;7.614;2022-12-20T02:00:00;19.60;;;12.83;;
5147;SDS011;2592;48.140;7.614;2022-12-20T02:02:26;17.53;;;13.40;;
5147;SDS011;2592;48.140;7.614;2022-12-20T02:04:53;17.73;;;13.03;;
5147;SDS011;2592;48.140;7.614;2022-12-20T02:07:22;16.90;;;12.80;;
5147;SDS011;2592;48.140;7.614;2022-12-20T02:09:50;17.60;;;12.60;;
5147;SDS011;2592;48.140;7.614;2022-12-20T02:12:18;18.50;;;12.87;;
5147;SDS011;2592;48.140;7.614;2022-12-20T02:14:49;18.47;;;13.97;;
5147;SDS011;2592;48.140;7.614;2022-12-20T02:17:25;15.20;;;11.73;;
5147;SDS011;2592;48.140;7.614;2022-12-20T02:20:04;19.80;;;13.20;;
5147;SDS011;2592;48.140;7.614;2022-12-20T02:22:37;16.07;;;12.00;;
5147;SDS011;2592;48.140;7.614;2022-12-20T02:25:14;16.30;;;11.60;;
5147;SDS011;2592;48.140;7.614;2022-12-20T02:27:50;14.70;;;11.33;;
5147;SDS011;2592;48.140;7.614;2022-12-20T02:30:20;15.20;;;12.03;;
5147;SDS011;2592;48.140;7.614;2022-12-20T02:32:48;16.80;;;11.30;;
5147;SDS011;2592;48.140;7.614;2022-12-20T02:35:18;16.30;;;12.20;;
5147;SDS011;2592;48.140;7.614;2022-12-20T02:37:46;16.60;;;11.70;;
5147;SDS011;2592;48.140;7.614;2022-12-20T02:40:12;19.37;;;12.50;;
5147;SDS011;2592;48.140;7.614;2022-12-20T02:42:40;21.93;;;14.03;;
5147;SDS011;2592;48.140;7.614;2022-12-20T02:45:07;20.33;;;14.33;;
5147;SDS011;2592;48.140;7.614;2022-12-20T02:47:47;17.53;;;12.93;;
5147;SDS011;2592;48.140;7.614;2022-12-20T02:50:16;22.50;;;12.10;;
5147;SDS011;2592;48.140;7.614;2022-12-20T02:52:43;17.23;;;12.87;;
5147;SDS011;2592;48.140;7.614;2022-12-20T02:55:10;20.07;;;14.10;;
5147;SDS011;2592;48.140;7.614;2022-12-20T02:57:37;27.87;;;14.00;;
5147;SDS011;2592;48.140;7.614;2022-12-20T03:00:08;19.80;;;13.20;;
5147;SDS011;2592;48.140;7.614;2022-12-20T03:02:35;21.67;;;15.30;;
5147;SDS011;2592;48.140;7.614;2022-12-20T03:05:17;20.50;;;14.27;;
5147;SDS011;2592;48.140;7.614;2022-12-20T03:07:45;19.73;;;14.77;;
5147;SDS011;2592;48.140;7.614;2022-12-20T03:10:11;18.73;;;13.63;;
5147;SDS011;2592;48.140;7.614;2022-12-20T03:12:38;23.63;;;13.93;;
5147;SDS011;2592;48.140;7.614;2022-12-20T03:15:05;17.30;;;12.20;;
5147;SDS011;2592;48.140;7.614;2022-12-20T03:17:31;19.40;;;11.23;;
5147;SDS011;2592;48.140;7.614;2022-12-20T03:19:57;15.30;;;9.53;;
5147;SDS011;2592;48.140;7.614;2022-12-20T03:22:25;13.70;;;10.10;;
5147;SDS011;2592;48.140;7.614;2022-12-20T03:24:52;13.87;;;9.57;;
5147;SDS011;2592;48.140;7.614;2022-12-20T03:27:18;22.70;;;9.30;;
5147;SDS011;2592;48.140;7.614;2022-12-20T03:29:44;18.03;;;9.67;;
5147;SDS011;2592;48.140;7.614;2022-12-20T03:32:11;13.40;;;10.27;;
5147;SDS011;2592;48.140;7.614;2022-12-20T03:34:37;15.80;;;10.37;;
5147;SDS011;2592;48.140;7.614;2022-12-20T03:37:04;14.30;;;10.37;;
5147;SDS011;2592;48.140;7.614;2022-12-20T03:39:32;16.23;;;11.30;;
5147;SDS011;2592;48.140;7.614;2022-12-20T03:41:58;12.13;;;10.00;;
5147;SDS011;2592;48.140;7.614;2022-12-20T03:44:24;18.13;;;10.30;;
5147;SDS011;2592;48.140;7.614;2022-12-20T03:46:51;17.80;;;11.07;;
5147;SDS011;2592;48.140;7.614;2022-12-20T03:49:17;16.00;;;11.17;;
5147;SDS011;2592;48.140;7.614;2022-12-20T03:51:43;15.27;;;9.00;;
5147;SDS011;2592;48.140;7.614;2022-12-20T03:54:10;11.53;;;8.70;;
5147;SDS011;2592;48.140;7.614;2022-12-20T03:56:38;10.00;;;7.50;;
5147;SDS011;2592;48.140;7.614;2022-12-20T03:59:04;12.53;;;9.77;;
5147;SDS011;2592;48.140;7.614;2022-12-20T04:01:30;10.23;;;8.43;;
5147;SDS011;2592;48.140;7.614;2022-12-20T04:04:00;12.53;;;8.60;;
5147;SDS011;2592;48.140;7.614;2022-12-20T04:06:27;10.53;;;8.40;;
5147;SDS011;2592;48.140;7.614;2022-12-20T04:08:53;11.53;;;8.57;;
5147;SDS011;2592;48.140;7.614;2022-12-20T04:11:19;14.07;;;9.67;;
5147;SDS011;2592;48.140;7.614;2022-12-20T04:13:48;19.93;;;8.80;;
5147;SDS011;2592;48.140;7.614;2022-12-20T04:16:15;12.80;;;9.97;;
5147;SDS011;2592;48.140;7.614;2022-12-20T04:18:42;9.90;;;7.63;;
5147;SDS011;2592;48.140;7.614;2022-12-20T04:21:09;9.03;;;7.63;;
5147;SDS011;2592;48.140;7.614;2022-12-20T04:23:36;11.30;;;8.17;;
5147;SDS011;2592;48.140;7.614;2022-12-20T04:26:03;11.97;;;8.33;;
5147;SDS011;2592;48.140;7.614;2022-12-20T04:28:30;9.13;;;7.53;;
5147;SDS011;2592;48.140;7.614;2022-12-20T04:30:58;9.23;;;7.60;;
5147;SDS011;2592;48.140;7.614;2022-12-20T04:33:25;12.20;;;8.30;;
5147;SDS011;2592;48.140;7.614;2022-12-20T04:35:52;14.03;;;9.90;;
5147;SDS011;2592;48.140;7.614;2022-12-20T04:38:19;11.77;;;8.77;;
5147;SDS011;2592;48.140;7.614;2022-12-20T04:40:47;13.30;;;8.73;;
5147;SDS011;2592;48.140;7.614;2022-12-20T04:43:13;12.00;;;8.90;;
5147;SDS011;2592;48.140;7.614;2022-12-20T04:45:40;10.83;;;8.30;;
5147;SDS011;2592;48.140;7.614;2022-12-20T04:48:09;10.93;;;8.20;;
5147;SDS011;2592;48.140;7.614;2022-12-20T04:50:36;16.40;;;8.33;;
5147;SDS011;2592;48.140;7.614;2022-12-20T04:53:02;12.70;;;8.10;;
5147;SDS011;2592;48.140;7.614;2022-12-20T04:55:46;10.20;;;7.97;;
5147;SDS011;2592;48.140;7.614;2022-12-20T04:58:12;11.43;;;8.30;;
5147;SDS011;2592;48.140;7.614;2022-12-20T05:00:39;13.93;;;9.13;;
5147;SDS011;2592;48.140;7.614;2022-12-20T05:03:05;9.33;;;7.67;;
5147;SDS011;2592;48.140;7.614;2022-12-20T05:05:33;11.73;;;9.20;;
5147;SDS011;2592;48.140;7.614;2022-12-20T05:07:59;14.33;;;9.23;;
5147;SDS011;2592;48.140;7.614;2022-12-20T05:10:25;12.17;;;9.17;;
5147;SDS011;2592;48.140;7.614;2022-12-20T05:12:52;11.67;;;8.20;;
5147;SDS011;2592;48.140;7.614;2022-12-20T05:15:18;12.30;;;8.53;;
5147;SDS011;2592;48.140;7.614;2022-12-20T05:17:45;9.70;;;7.87;;
5147;SDS011;2592;48.140;7.614;2022-12-20T05:20:11;12.30;;;9.07;;
5147;SDS011;2592;48.140;7.614;2022-12-20T05:22:39;13.00;;;8.70;;
5147;SDS011;2592;48.140;7.614;2022-12-20T05:25:23;12.10;;;9.03;;
5147;SDS011;2592;48.140;7.614;2022-12-20T05:28:07;12.90;;;9.20;;
5147;SDS011;2592;48.140;7.614;2022-12-20T05:30:33;13.67;;;9.27;;
5147;SDS011;2592;48.140;7.614;2022-12-20T05:33:00;14.83;;;9.53;;
5147;SDS011;2592;48.140;7.614;2022-12-20T05:35:26;14.53;;;10.80;;
5147;SDS011;2592;48.140;7.614;2022-12-20T05:37:54;15.33;;;10.63;;
5147;SDS011;2592;48.140;7.614;2022-12-20T05:40:20;19.60;;;14.43;;
5147;SDS011;2592;48.140;7.614;2022-12-20T05:42:47;15.17;;;11.80;;
5147;SDS011;2592;48.140;7.614;2022-12-20T05:45:13;13.50;;;10.33;;
5147;SDS011;2592;48.140;7.614;2022-12-20T05:47:40;15.07;;;10.97;;
5147;SDS011;2592;48.140;7.614;2022-12-20T05:50:07;19.30;;;11.33;;
5147;SDS011;2592;48.140;7.614;2022-12-20T05:52:33;19.63;;;13.50;;
5147;SDS011;2592;48.140;7.614;2022-12-20T05:55:01;17.07;;;11.40;;
5147;SDS011;2592;48.140;7.614;2022-12-20T05:57:27;21.87;;;13.27;;
5147;SDS011;2592;48.140;7.614;2022-12-20T05:59:54;17.60;;;13.03;;
5147;SDS011;2592;48.140;7.614;2022-12-20T06:02:20;21.37;;;14.70;;
5147;SDS011;2592;48.140;7.614;2022-12-20T06:04:47;28.70;;;12.60;;
5147;SDS011;2592;48.140;7.614;2022-12-20T06:07:13;17.37;;;12.77;;
5147;SDS011;2592;48.140;7.614;2022-12-20T06:09:39;21.67;;;16.30;;
5147;SDS011;2592;48.140;7.614;2022-12-20T06:12:07;21.30;;;13.40;;
5147;SDS011;2592;48.140;7.614;2022-12-20T06:14:34;21.63;;;15.50;;
5147;SDS011;2592;48.140;7.614;2022-12-20T06:17:00;16.30;;;12.70;;
5147;SDS011;2592;48.140;7.614;2022-12-20T06:19:27;18.63;;;11.07;;
5147;SDS011;2592;48.140;7.614;2022-12-20T06:21:53;12.77;;;9.73;;
5147;SDS011;2592;48.140;7.614;2022-12-20T06:24:19;15.30;;;10.70;;
5147;SDS011;2592;48.140;7.614;2022-12-20T06:26:49;12.60;;;10.33;;
5147;SDS011;2592;48.140;7.614;2022-12-20T06:29:17;13.37;;;9.90;;
5147;SDS011;2592;48.140;7.614;2022-12-20T06:31:44;19.53;;;10.30;;
5147;SDS011;2592;48.140;7.614;2022-12-20T06:34:11;16.80;;;10.87;;
5147;SDS011;2592;48.140;7.614;2022-12-20T06:36:38;16.67;;;10.40;;
5147;SDS011;2592;48.140;7.614;2022-12-20T06:39:04;14.57;;;9.83;;
5147;SDS011;2592;48.140;7.614;2022-12-20T06:41:33;12.80;;;9.20;;
5147;SDS011;2592;48.140;7.614;2022-12-20T06:43:59;14.33;;;9.50;;
5147;SDS011;2592;48.140;7.614;2022-12-20T06:46:27;13.47;;;8.33;;
5147;SDS011;2592;48.140;7.614;2022-12-20T06:48:54;13.53;;;9.17;;
5147;SDS011;2592;48.140;7.614;2022-12-20T06:51:21;12.90;;;9.80;;
5147;SDS011;2592;48.140;7.614;2022-12-20T06:53:47;12.13;;;9.10;;
5147;SDS011;2592;48.140;7.614;2022-12-20T06:56:13;14.60;;;9.60;;
5147;SDS011;2592;48.140;7.614;2022-12-20T06:58:40;13.97;;;9.57;;
5147;SDS011;2592;48.140;7.614;2022-12-20T07:01:06;13.03;;;8.40;;
5147;SDS011;2592;48.140;7.614;2022-12-20T07:03:34;12.50;;;9.80;;
5147;SDS011;2592;48.140;7.614;2022-12-20T07:06:00;12.50;;;9.00;;
5147;SDS011;2592;48.140;7.614;2022-12-20T07:08:27;21.67;;;15.67;;
5147;SDS011;2592;48.140;7.614;2022-12-20T07:10:53;20.70;;;13.40;;
5147;SDS011;2592;48.140;7.614;2022-12-20T07:13:20;18.77;;;12.47;;
5147;SDS011;2592;48.140;7.614;2022-12-20T07:15:47;17.63;;;12.60;;
5147;SDS011;2592;48.140;7.614;2022-12-20T07:18:13;18.53;;;12.10;;
5147;SDS011;2592;48.140;7.614;2022-12-20T07:20:41;17.03;;;12.57;;
5147;SDS011;2592;48.140;7.614;2022-12-20T07:23:07;15.93;;;12.00;;
5147;SDS011;2592;48.140;7.614;2022-12-20T07:25:34;19.93;;;13.50;;
5147;SDS011;2592;48.140;7.614;2022-12-20T07:28:01;21.47;;;13.50;;
5147;SDS011;2592;48.140;7.614;2022-12-20T07:30:27;19.40;;;13.27;;
5147;SDS011;2592;48.140;7.614;2022-12-20T07:32:53;17.50;;;11.50;;
5147;SDS011;2592;48.140;7.614;2022-12-20T07:35:20;40.17;;;28.10;;
5147;SDS011;2592;48.140;7.614;2022-12-20T07:37:48;40.40;;;28.60;;
5147;SDS011;2592;48.140;7.614;2022-12-20T07:40:14;48.10;;;31.07;;
5147;SDS011;2592;48.140;7.614;2022-12-20T07:42:41;34.33;;;22.50;;
5147;SDS011;2592;48.140;7.614;2022-12-20T07:45:07;25.27;;;19.10;;
5147;SDS011;2592;48.140;7.614;2022-12-20T07:47:34;21.93;;;17.10;;
5147;SDS011;2592;48.140;7.614;2022-12-20T07:50:00;26.10;;;18.10;;
5147;SDS011;2592;48.140;7.614;2022-12-20T07:52:27;23.90;;;17.77;;
5147;SDS011;2592;48.140;7.614;2022-12-20T07:54:55;23.87;;;16.40;;
5147;SDS011;2592;48.140;7.614;2022-12-20T07:57:23;29.13;;;17.73;;
5147;SDS011;2592;48.140;7.614;2022-12-20T07:59:52;21.63;;;14.40;;
5147;SDS011;2592;48.140;7.614;2022-12-20T08:02:20;18.50;;;14.47;;
5147;SDS011;2592;48.140;7.614;2022-12-20T08:04:47;19.00;;;12.80;;
5147;SDS011;2592;48.140;7.614;2022-12-20T08:07:14;14.00;;;11.03;;
5147;SDS011;2592;48.140;7.614;2022-12-20T08:09:41;14.00;;;11.83;;
5147;SDS011;2592;48.140;7.614;2022-12-20T08:12:09;17.53;;;13.97;;
5147;SDS011;2592;48.140;7.614;2022-12-20T08:14:37;15.27;;;9.83;;
5147;SDS011;2592;48.140;7.614;2022-12-20T08:17:03;14.20;;;9.60;;
5147;SDS011;2592;48.140;7.614;2022-12-20T08:19:29;14.87;;;11.27;;
5147;SDS011;2592;48.140;7.614;2022-12-20T08:21:56;19.10;;;14.30;;
5147;SDS011;2592;48.140;7.614;2022-12-20T08:24:22;28.80;;;22.20;;
5147;SDS011;2592;48.140;7.614;2022-12-20T08:26:49;26.83;;;19.10;;
5147;SDS011;2592;48.140;7.614;2022-12-20T08:29:16;39.00;;;23.43;;
5147;SDS011;2592;48.140;7.614;2022-12-20T08:31:43;18.23;;;12.23;;
5147;SDS011;2592;48.140;7.614;2022-12-20T08:34:09;14.07;;;10.97;;
5147;SDS011;2592;48.140;7.614;2022-12-20T08:36:36;11.40;;;8.27;;
5147;SDS011;2592;48.140;7.614;2022-12-20T08:39:02;11.93;;;7.83;;
5147;SDS011;2592;48.140;7.614;2022-12-20T08:41:29;9.67;;;7.43;;
5147;SDS011;2592;48.140;7.614;2022-12-20T08:43:55;11.13;;;6.93;;
5147;SDS011;2592;48.140;7.614;2022-12-20T08:46:23;11.00;;;7.13;;
5147;SDS011;2592;48.140;7.614;2022-12-20T08:48:49;9.10;;;6.67;;
5147;SDS011;2592;48.140;7.614;2022-12-20T08:51:16;10.53;;;7.60;;
5147;SDS011;2592;48.140;7.614;2022-12-20T08:53:42;18.70;;;5.87;;
5147;SDS011;2592;48.140;7.614;2022-12-20T08:56:09;7.50;;;5.47;;
5147;SDS011;2592;48.140;7.614;2022-12-20T08:58:36;7.70;;;5.77;;
5147;SDS011;2592;48.140;7.614;2022-12-20T09:01:04;11.27;;;5.43;;
5147;SDS011;2592;48.140;7.614;2022-12-20T09:03:32;9.90;;;6.77;;
5147;SDS011;2592;48.140;7.614;2022-12-20T09:05:58;11.93;;;6.10;;
5147;SDS011;2592;48.140;7.614;2022-12-20T09:08:25;9.70;;;6.17;;
5147;SDS011;2592;48.140;7.614;2022-12-20T09:10:52;7.57;;;5.70;;
5147;SDS011;2592;48.140;7.614;2022-12-20T09:13:18;9.80;;;5.20;;
5147;SDS011;2592;48.140;7.614;2022-12-20T09:15:45;8.70;;;5.97;;
5147;SDS011;2592;48.140;7.614;2022-12-20T09:18:11;9.17;;;6.67;;
5147;SDS011;2592;48.140;7.614;2022-12-20T09:20:42;19.13;;;12.87;;
5147;SDS011;2592;48.140;7.614;2022-12-20T09:23:09;15.93;;;7.60;;
5147;SDS011;2592;48.140;7.614;2022-12-20T09:25:35;14.23;;;7.13;;
5147;SDS011;2592;48.140;7.614;2022-12-20T09:28:02;14.67;;;6.40;;
5147;SDS011;2592;48.140;7.614;2022-12-20T09:30:29;9.37;;;5.80;;
5147;SDS011;2592;48.140;7.614;2022-12-20T09:32:55;8.50;;;5.87;;
5147;SDS011;2592;48.140;7.614;2022-12-20T09:35:22;6.67;;;5.00;;
5147;SDS011;2592;48.140;7.614;2022-12-20T09:37:49;8.07;;;5.47;;
5147;SDS011;2592;48.140;7.614;2022-12-20T09:40:16;10.93;;;7.43;;
5147;SDS011;2592;48.140;7.614;2022-12-20T09:42:43;10.77;;;6.50;;
5147;SDS011;2592;48.140;7.614;2022-12-20T09:45:11;12.33;;;7.30;;
5147;SDS011;2592;48.140;7.614;2022-12-20T09:47:41;9.30;;;6.87;;
5147;SDS011;2592;48.140;7.614;2022-12-20T09:50:12;23.77;;;7.20;;
5147;SDS011;2592;48.140;7.614;2022-12-20T09:52:44;13.23;;;7.23;;
5147;SDS011;2592;48.140;7.614;2022-12-20T09:55:16;12.57;;;7.17;;
5147;SDS011;2592;48.140;7.614;2022-12-20T09:57:49;17.60;;;7.13;;
5147;SDS011;2592;48.140;7.614;2022-12-20T10:00:19;9.40;;;6.47;;
5147;SDS011;2592;48.140;7.614;2022-12-20T10:02:46;17.63;;;6.60;;
5147;SDS011;2592;48.140;7.614;2022-12-20T10:05:13;9.13;;;6.70;;
5147;SDS011;2592;48.140;7.614;2022-12-20T10:07:41;13.77;;;7.60;;
5147;SDS011;2592;48.140;7.614;2022-12-20T10:13:01;12.03;;;6.83;;
5147;SDS011;2592;48.140;7.614;2022-12-20T10:15:30;9.10;;;7.30;;
5147;SDS011;2592;48.140;7.614;2022-12-20T10:18:02;10.73;;;6.57;;
5147;SDS011;2592;48.140;7.614;2022-12-20T10:20:43;12.17;;;8.00;;
5147;SDS011;2592;48.140;7.614;2022-12-20T10:23:14;12.90;;;6.90;;
5147;SDS011;2592;48.140;7.614;2022-12-20T10:25:47;10.73;;;6.93;;
5147;SDS011;2592;48.140;7.614;2022-12-20T10:28:16;9.20;;;6.40;;
5147;SDS011;2592;48.140;7.614;2022-12-20T10:30:45;14.23;;;7.17;;
5147;SDS011;2592;48.140;7.614;2022-12-20T10:33:13;9.17;;;6.30;;
5147;SDS011;2592;48.140;7.614;2022-12-20T10:35:41;11.10;;;7.03;;
5147;SDS011;2592;48.140;7.614;2022-12-20T10:38:08;9.67;;;7.53;;
5147;SDS011;2592;48.140;7.614;2022-12-20T10:40:37;9.37;;;6.77;;
5147;SDS011;2592;48.140;7.614;2022-12-20T10:43:04;11.70;;;6.03;;
5147;SDS011;2592;48.140;7.614;2022-12-20T10:45:33;10.27;;;6.60;;
5147;SDS011;2592;48.140;7.614;2022-12-20T10:48:00;6.97;;;5.73;;
5147;SDS011;2592;48.140;7.614;2022-12-20T10:50:27;10.40;;;5.37;;
5147;SDS011;2592;48.140;7.614;2022-12-20T10:55:44;10.03;;;5.17;;
5147;SDS011;2592;48.140;7.614;2022-12-20T10:58:12;8.47;;;5.90;;
5147;SDS011;2592;48.140;7.614;2022-12-20T11:00:40;9.23;;;6.30;;
5147;SDS011;2592;48.140;7.614;2022-12-20T11:03:10;9.73;;;6.30;;
5147;SDS011;2592;48.140;7.614;2022-12-20T11:05:38;8.13;;;5.83;;
5147;SDS011;2592;48.140;7.614;2022-12-20T11:08:12;8.23;;;5.87;;
5147;SDS011;2592;48.140;7.614;2022-12-20T11:10:39;8.97;;;6.23;;
5147;SDS011;2592;48.140;7.614;2022-12-20T11:13:05;11.20;;;8.17;;
5147;SDS011;2592;48.140;7.614;2022-12-20T11:15:33;10.70;;;7.70;;
5147;SDS011;2592;48.140;7.614;2022-12-20T11:18:02;10.70;;;7.43;;
5147;SDS011;2592;48.140;7.614;2022-12-20T11:20:32;8.77;;;6.73;;
5147;SDS011;2592;48.140;7.614;2022-12-20T11:23:02;12.97;;;7.63;;
5147;SDS011;2592;48.140;7.614;2022-12-20T11:25:35;25.37;;;13.80;;
5147;SDS011;2592;48.140;7.614;2022-12-20T11:28:12;11.90;;;7.30;;
5147;SDS011;2592;48.140;7.614;2022-12-20T11:30:42;11.43;;;8.50;;
5147;SDS011;2592;48.140;7.614;2022-12-20T11:33:28;10.40;;;6.37;;
5147;SDS011;2592;48.140;7.614;2022-12-20T11:35:57;10.57;;;6.30;;
5147;SDS011;2592;48.140;7.614;2022-12-20T11:38:31;8.80;;;6.50;;
5147;SDS011;2592;48.140;7.614;2022-12-20T11:41:06;14.73;;;10.70;;
5147;SDS011;2592;48.140;7.614;2022-12-20T11:43:36;13.60;;;9.50;;
5147;SDS011;2592;48.140;7.614;2022-12-20T11:46:15;11.03;;;6.73;;
5147;SDS011;2592;48.140;7.614;2022-12-20T11:48:53;10.30;;;6.33;;
5147;SDS011;2592;48.140;7.614;2022-12-20T11:51:27;9.27;;;6.63;;
5147;SDS011;2592;48.140;7.614;2022-12-20T11:53:56;10.93;;;6.30;;
5147;SDS011;2592;48.140;7.614;2022-12-20T11:56:25;6.50;;;5.30;;
5147;SDS011;2592;48.140;7.614;2022-12-20T11:58:54;12.27;;;6.40;;
5147;SDS011;2592;48.140;7.614;2022-12-20T12:01:23;8.63;;;7.53;;
5147;SDS011;2592;48.140;7.614;2022-12-20T12:03:56;9.40;;;6.10;;
5147;SDS011;2592;48.140;7.614;2022-12-20T12:06:24;7.70;;;5.50;;
5147;SDS011;2592;48.140;7.614;2022-12-20T12:08:53;5.37;;;4.50;;
5147;SDS011;2592;48.140;7.614;2022-12-20T12:11:22;7.40;;;6.03;;
5147;SDS011;2592;48.140;7.614;2022-12-20T12:13:51;6.13;;;4.70;;
5147;SDS011;2592;48.140;7.614;2022-12-20T12:16:19;5.10;;;4.20;;
5147;SDS011;2592;48.140;7.614;2022-12-20T12:18:46;5.10;;;3.30;;
5147;SDS011;2592;48.140;7.614;2022-12-20T12:21:15;9.10;;;4.37;;
5147;SDS011;2592;48.140;7.614;2022-12-20T12:23:47;6.30;;;4.20;;
5147;SDS011;2592;48.140;7.614;2022-12-20T12:26:17;6.57;;;4.40;;
5147;SDS011;2592;48.140;7.614;2022-12-20T12:28:44;8.03;;;5.23;;
5147;SDS011;2592;48.140;7.614;2022-12-20T12:31:12;14.40;;;5.30;;
5147;SDS011;2592;48.140;7.614;2022-12-20T12:33:40;7.00;;;4.20;;
5147;SDS011;2592;48.140;7.614;2022-12-20T12:36:22;5.60;;;3.93;;
5147;SDS011;2592;48.140;7.614;2022-12-20T12:38:58;6.50;;;4.23;;
5147;SDS011;2592;48.140;7.614;2022-12-20T12:44:33;4.03;;;3.30;;
5147;SDS011;2592;48.140;7.614;2022-12-20T12:47:09;6.20;;;4.40;;
5147;SDS011;2592;48.140;7.614;2022-12-20T12:49:38;6.90;;;5.20;;
5147;SDS011;2592;48.140;7.614;2022-12-20T12:52:06;7.50;;;3.87;;
5147;SDS011;2592;48.140;7.614;2022-12-20T12:54:47;6.03;;;3.43;;
5147;SDS011;2592;48.140;7.614;2022-12-20T12:57:14;6.20;;;3.97;;
5147;SDS011;2592;48.140;7.614;2022-12-20T12:59:42;3.43;;;2.37;;
5147;SDS011;2592;48.140;7.614;2022-12-20T13:07:53;5.40;;;2.10;;
5147;SDS011;2592;48.140;7.614;2022-12-20T13:13:11;3.23;;;2.40;;
5147;SDS011;2592;48.140;7.614;2022-12-20T13:18:28;3.00;;;1.70;;
5147;SDS011;2592;48.140;7.614;2022-12-20T13:23:41;2.27;;;1.67;;
5147;SDS011;2592;48.140;7.614;2022-12-20T13:28:48;3.70;;;2.60;;
5147;SDS011;2592;48.140;7.614;2022-12-20T13:31:30;4.17;;;1.70;;
5147;SDS011;2592;48.140;7.614;2022-12-20T13:33:59;1.77;;;1.60;;
5147;SDS011;2592;48.140;7.614;2022-12-20T13:36:30;2.43;;;1.50;;
5147;SDS011;2592;48.140;7.614;2022-12-20T13:38:59;3.33;;;1.40;;
5147;SDS011;2592;48.140;7.614;2022-12-20T13:41:30;3.40;;;1.30;;
5147;SDS011;2592;48.140;7.614;2022-12-20T13:43:59;4.70;;;2.27;;
5147;SDS011;2592;48.140;7.614;2022-12-20T13:46:27;3.67;;;2.00;;
5147;SDS011;2592;48.140;7.614;2022-12-20T13:48:57;4.07;;;2.63;;
5147;SDS011;2592;48.140;7.614;2022-12-20T13:51:27;4.13;;;3.30;;
5147;SDS011;2592;48.140;7.614;2022-12-20T13:53:54;11.30;;;6.00;;
5147;SDS011;2592;48.140;7.614;2022-12-20T13:56:34;9.13;;;4.50;;
5147;SDS011;2592;48.140;7.614;2022-12-20T13:59:03;4.23;;;2.10;;
5147;SDS011;2592;48.140;7.614;2022-12-20T14:01:30;7.00;;;1.97;;
5147;SDS011;2592;48.140;7.614;2022-12-20T14:03:57;2.83;;;1.70;;
5147;SDS011;2592;48.140;7.614;2022-12-20T14:06:24;3.60;;;2.10;;
5147;SDS011;2592;48.140;7.614;2022-12-20T14:08:51;5.13;;;2.63;;
5147;SDS011;2592;48.140;7.614;2022-12-20T14:11:19;26.53;;;3.37;;
5147;SDS011;2592;48.140;7.614;2022-12-20T14:13:51;11.90;;;2.97;;
5147;SDS011;2592;48.140;7.614;2022-12-20T14:16:19;3.93;;;2.10;;
5147;SDS011;2592;48.140;7.614;2022-12-20T14:18:48;3.57;;;2.77;;
5147;SDS011;2592;48.140;7.614;2022-12-20T14:21:15;4.90;;;3.03;;
5147;SDS011;2592;48.140;7.614;2022-12-20T14:23:43;9.97;;;2.27;;
5147;SDS011;2592;48.140;7.614;2022-12-20T14:26:10;13.37;;;5.90;;
5147;SDS011;2592;48.140;7.614;2022-12-20T14:28:38;3.33;;;2.80;;
5147;SDS011;2592;48.140;7.614;2022-12-20T14:31:21;9.50;;;6.77;;
5147;SDS011;2592;48.140;7.614;2022-12-20T14:33:47;4.80;;;3.50;;
5147;SDS011;2592;48.140;7.614;2022-12-20T14:36:16;6.00;;;4.60;;
5147;SDS011;2592;48.140;7.614;2022-12-20T14:38:44;4.87;;;3.63;;
5147;SDS011;2592;48.140;7.614;2022-12-20T14:43:54;11.10;;;6.13;;
5147;SDS011;2592;48.140;7.614;2022-12-20T14:46:21;11.40;;;3.10;;
5147;SDS011;2592;48.140;7.614;2022-12-20T14:48:48;10.00;;;4.33;;
5147;SDS011;2592;48.140;7.614;2022-12-20T14:51:18;6.17;;;4.70;;
5147;SDS011;2592;48.140;7.614;2022-12-20T14:53:45;10.80;;;6.90;;
5147;SDS011;2592;48.140;7.614;2022-12-20T14:56:12;6.07;;;3.83;;
5147;SDS011;2592;48.140;7.614;2022-12-20T14:58:39;3.73;;;2.40;;
5147;SDS011;2592;48.140;7.614;2022-12-20T15:01:16;4.10;;;2.63;;
5147;SDS011;2592;48.140;7.614;2022-12-20T15:03:49;18.50;;;3.07;;
5147;SDS011;2592;48.140;7.614;2022-12-20T15:06:30;2.93;;;2.13;;
5147;SDS011;2592;48.140;7.614;2022-12-20T15:08:56;6.07;;;2.27;;
5147;SDS011;2592;48.140;7.614;2022-12-20T15:11:23;7.77;;;5.00;;
5147;SDS011;2592;48.140;7.614;2022-12-20T15:13:51;23.73;;;14.20;;
5147;SDS011;2592;48.140;7.614;2022-12-20T15:16:19;42.37;;;26.67;;
5147;SDS011;2592;48.140;7.614;2022-12-20T15:18:46;83.33;;;56.13;;
5147;SDS011;2592;48.140;7.614;2022-12-20T15:21:14;51.83;;;36.70;;
5147;SDS011;2592;48.140;7.614;2022-12-20T15:23:45;9.33;;;7.40;;
5147;SDS011;2592;48.140;7.614;2022-12-20T15:26:12;30.93;;;21.40;;
5147;SDS011;2592;48.140;7.614;2022-12-20T15:28:40;19.33;;;14.30;;
5147;SDS011;2592;48.140;7.614;2022-12-20T15:31:07;9.30;;;6.67;;
5147;SDS011;2592;48.140;7.614;2022-12-20T15:33:36;6.07;;;3.80;;
5147;SDS011;2592;48.140;7.614;2022-12-20T15:36:03;4.33;;;3.17;;